sensor_id;sensor_type;location;lat;lon;timestamp;pressure;altitude;pressure_sealevel;temperature;humidity
59873;BME280;50750;51.636;4.948;2023-02-21T00:00:42;102263.64;;;12.44;66.28
59873;BME280;50750;51.636;4.948;2023-02-21T00:03:28;102261.18;;;12.45;66.15
59873;BME280;50750;51.636;4.948;2023-02-21T00:06:13;102262.40;;;12.45;66.23
59873;BME280;50750;51.636;4.948;2023-02-21T00:08:58;102262.05;;;12.45;66.04
59873;BME280;50750;51.636;4.948;2023-02-21T00:11:43;102259.93;;;12.45;66.13
59873;BME280;50750;51.636;4.948;2023-02-21T00:14:29;102265.89;;;12.46;66.19
59873;BME280;50750;51.636;4.948;2023-02-21T00:17:14;102267.46;;;12.46;66.16
59873;BME280;50750;51.636;4.948;2023-02-21T00:19:59;102268.52;;;12.46;66.18
59873;BME280;50750;51.636;4.948;2023-02-21T00:22:45;102272.05;;;12.46;66.17
59873;BME280;50750;51.636;4.948;2023-02-21T00:25:30;102274.68;;;12.45;66.05
59873;BME280;50750;51.636;4.948;2023-02-21T00:28:15;102275.58;;;12.45;66.17
59873;BME280;50750;51.636;4.948;2023-02-21T00:31:00;102275.41;;;12.44;66.24
59873;BME280;50750;51.636;4.948;2023-02-21T00:33:46;102276.83;;;12.44;66.16
59873;BME280;50750;51.636;4.948;2023-02-21T00:36:32;102276.98;;;12.44;66.13
59873;BME280;50750;51.636;4.948;2023-02-21T00:39:17;102274.71;;;12.44;66.18
59873;BME280;50750;51.636;4.948;2023-02-21T00:42:03;102277.33;;;12.45;66.28
59873;BME280;50750;51.636;4.948;2023-02-21T00:44:48;102271.36;;;12.45;66.23
59873;BME280;50750;51.636;4.948;2023-02-21T00:47:33;102272.04;;;12.46;66.08
59873;BME280;50750;51.636;4.948;2023-02-21T00:50:18;102270.28;;;12.46;66.15
59873;BME280;50750;51.636;4.948;2023-02-21T00:53:03;102270.82;;;12.45;66.21
59873;BME280;50750;51.636;4.948;2023-02-21T00:55:49;102271.88;;;12.45;66.18
59873;BME280;50750;51.636;4.948;2023-02-21T00:58:34;102272.42;;;12.45;66.13
59873;BME280;50750;51.636;4.948;2023-02-21T01:01:19;102270.33;;;12.44;66.24
59873;BME280;50750;51.636;4.948;2023-02-21T01:04:04;102264.69;;;12.44;66.14
59873;BME280;50750;51.636;4.948;2023-02-21T01:06:50;102258.20;;;12.44;66.18
59873;BME280;50750;51.636;4.948;2023-02-21T01:09:35;102258.55;;;12.45;66.19
59873;BME280;50750;51.636;4.948;2023-02-21T01:12:20;102257.13;;;12.45;66.21
59873;BME280;50750;51.636;4.948;2023-02-21T01:15:06;102254.11;;;12.46;66.12
59873;BME280;50750;51.636;4.948;2023-02-21T01:17:51;102253.77;;;12.46;66.11
59873;BME280;50750;51.636;4.948;2023-02-21T01:20:36;102252.54;;;12.46;66.11
59873;BME280;50750;51.636;4.948;2023-02-21T01:23:21;102250.25;;;12.46;66.18
59873;BME280;50750;51.636;4.948;2023-02-21T01:26:08;102247.45;;;12.46;66.22
59873;BME280;50750;51.636;4.948;2023-02-21T01:28:53;102244.66;;;12.45;66.20
59873;BME280;50750;51.636;4.948;2023-02-21T01:31:39;102243.97;;;12.45;66.23
59873;BME280;50750;51.636;4.948;2023-02-21T01:34:24;102243.97;;;12.44;66.24
59873;BME280;50750;51.636;4.948;2023-02-21T01:37:09;102243.96;;;12.43;66.19
59873;BME280;50750;51.636;4.948;2023-02-21T01:39:54;102239.75;;;12.44;66.25
59873;BME280;50750;51.636;4.948;2023-02-21T01:42:39;102241.16;;;12.44;66.23
59873;BME280;50750;51.636;4.948;2023-02-21T01:48:20;102239.23;;;12.44;66.27
59873;BME280;50750;51.636;4.948;2023-02-21T01:51:09;102237.09;;;12.45;66.22
59873;BME280;50750;51.636;4.948;2023-02-21T01:53:56;102237.09;;;12.45;66.15
59873;BME280;50750;51.636;4.948;2023-02-21T01:56:41;102232.73;;;12.44;66.19
59873;BME280;50750;51.636;4.948;2023-02-21T01:59:27;102231.85;;;12.44;66.25
59873;BME280;50750;51.636;4.948;2023-02-21T02:02:27;102233.61;;;12.43;66.23
59873;BME280;50750;51.636;4.948;2023-02-21T02:05:13;102229.25;;;12.42;66.31
59873;BME280;50750;51.636;4.948;2023-02-21T02:07:59;102229.95;;;12.42;66.29
59873;BME280;50750;51.636;4.948;2023-02-21T02:10:45;102229.23;;;12.42;66.28
59873;BME280;50750;51.636;4.948;2023-02-21T02:14:01;102228.17;;;12.43;66.24
59873;BME280;50750;51.636;4.948;2023-02-21T02:16:53;102227.63;;;12.43;66.35
59873;BME280;50750;51.636;4.948;2023-02-21T02:25:15;102218.84;;;12.45;66.15
59873;BME280;50750;51.636;4.948;2023-02-21T02:27:51;102216.91;;;12.45;66.21
59873;BME280;50750;51.636;4.948;2023-02-21T02:36:12;102207.60;;;12.44;66.21
59873;BME280;50750;51.636;4.948;2023-02-21T02:41:58;102207.77;;;12.45;66.19
59873;BME280;50750;51.636;4.948;2023-02-21T02:44:38;102203.89;;;12.45;66.21
59873;BME280;50750;51.636;4.948;2023-02-21T02:47:11;102204.23;;;12.46;66.22
59873;BME280;50750;51.636;4.948;2023-02-21T02:49:41;102200.89;;;12.46;66.24
59873;BME280;50750;51.636;4.948;2023-02-21T02:52:09;102195.80;;;12.47;66.21
59873;BME280;50750;51.636;4.948;2023-02-21T02:54:36;102195.95;;;12.47;66.20
59873;BME280;50750;51.636;4.948;2023-02-21T02:57:04;102195.96;;;12.47;66.11
59873;BME280;50750;51.636;4.948;2023-02-21T02:59:38;102193.66;;;12.48;66.18
59873;BME280;50750;51.636;4.948;2023-02-21T03:07:33;102190.34;;;12.47;66.17
59873;BME280;50750;51.636;4.948;2023-02-21T03:15:21;102179.79;;;12.47;66.12
59873;BME280;50750;51.636;4.948;2023-02-21T03:18:00;102178.91;;;12.47;66.21
59873;BME280;50750;51.636;4.948;2023-02-21T03:20:31;102175.21;;;12.48;66.23
59873;BME280;50750;51.636;4.948;2023-02-21T03:23:01;102176.45;;;12.48;66.26
59873;BME280;50750;51.636;4.948;2023-02-21T03:25:30;102177.85;;;12.48;66.13
59873;BME280;50750;51.636;4.948;2023-02-21T03:27:59;102181.36;;;12.48;66.14
59873;BME280;50750;51.636;4.948;2023-02-21T03:30:27;102182.78;;;12.48;66.08
59873;BME280;50750;51.636;4.948;2023-02-21T03:32:55;102186.10;;;12.48;66.10
59873;BME280;50750;51.636;4.948;2023-02-21T03:35:22;102184.88;;;12.47;66.13
59873;BME280;50750;51.636;4.948;2023-02-21T03:37:51;102181.04;;;12.47;66.09
59873;BME280;50750;51.636;4.948;2023-02-21T03:40:23;102185.95;;;12.47;66.18
59873;BME280;50750;51.636;4.948;2023-02-21T03:42:52;102184.73;;;12.47;66.12
59873;BME280;50750;51.636;4.948;2023-02-21T03:45:19;102182.61;;;12.47;66.16
59873;BME280;50750;51.636;4.948;2023-02-21T03:47:46;102184.88;;;12.48;66.12
59873;BME280;50750;51.636;4.948;2023-02-21T03:50:13;102181.35;;;12.49;66.23
59873;BME280;50750;51.636;4.948;2023-02-21T03:52:40;102182.40;;;12.48;66.17
59873;BME280;50750;51.636;4.948;2023-02-21T03:55:07;102185.21;;;12.49;66.02
59873;BME280;50750;51.636;4.948;2023-02-21T03:57:34;102182.22;;;12.49;66.12
59873;BME280;50750;51.636;4.948;2023-02-21T04:00:01;102181.88;;;12.49;66.23
59873;BME280;50750;51.636;4.948;2023-02-21T04:02:27;102178.53;;;12.49;66.14
59873;BME280;50750;51.636;4.948;2023-02-21T04:04:54;102170.28;;;12.48;66.14
59873;BME280;50750;51.636;4.948;2023-02-21T04:07:20;102173.98;;;12.48;66.19
59873;BME280;50750;51.636;4.948;2023-02-21T04:09:48;102172.95;;;12.47;66.07
59873;BME280;50750;51.636;4.948;2023-02-21T04:12:15;102166.09;;;12.47;66.05
59873;BME280;50750;51.636;4.948;2023-02-21T04:14:41;102166.61;;;12.48;66.18
59873;BME280;50750;51.636;4.948;2023-02-21T04:17:08;102166.43;;;12.48;66.08
59873;BME280;50750;51.636;4.948;2023-02-21T04:19:35;102165.89;;;12.48;66.16
59873;BME280;50750;51.636;4.948;2023-02-21T04:22:01;102163.77;;;12.49;66.06
59873;BME280;50750;51.636;4.948;2023-02-21T04:24:28;102163.43;;;12.48;66.05
59873;BME280;50750;51.636;4.948;2023-02-21T04:26:55;102159.91;;;12.49;66.19
59873;BME280;50750;51.636;4.948;2023-02-21T04:29:23;102156.58;;;12.49;66.20
59873;BME280;50750;51.636;4.948;2023-02-21T04:31:50;102158.16;;;12.48;66.05
59873;BME280;50750;51.636;4.948;2023-02-21T04:34:17;102162.90;;;12.48;66.16
59873;BME280;50750;51.636;4.948;2023-02-21T04:36:43;102165.56;;;12.47;66.19
59873;BME280;50750;51.636;4.948;2023-02-21T04:39:10;102166.10;;;12.47;66.18
59873;BME280;50750;51.636;4.948;2023-02-21T04:41:36;102170.30;;;12.48;66.11
59873;BME280;50750;51.636;4.948;2023-02-21T04:44:03;102173.98;;;12.48;66.17
59873;BME280;50750;51.636;4.948;2023-02-21T04:46:32;102173.64;;;12.47;66.20
59873;BME280;50750;51.636;4.948;2023-02-21T04:48:59;102165.91;;;12.48;66.07
59873;BME280;50750;51.636;4.948;2023-02-21T04:51:25;102167.83;;;12.48;66.11
59873;BME280;50750;51.636;4.948;2023-02-21T04:53:53;102164.31;;;12.48;66.12
59873;BME280;50750;51.636;4.948;2023-02-21T04:56:23;102159.92;;;12.48;66.19
59873;BME280;50750;51.636;4.948;2023-02-21T04:58:50;102156.05;;;12.48;66.17
59873;BME280;50750;51.636;4.948;2023-02-21T05:01:18;102152.73;;;12.48;66.15
59873;BME280;50750;51.636;4.948;2023-02-21T05:03:45;102156.77;;;12.47;66.04
59873;BME280;50750;51.636;4.948;2023-02-21T05:06:19;102157.48;;;12.47;66.17
59873;BME280;50750;51.636;4.948;2023-02-21T05:08:47;102157.66;;;12.47;66.26
59873;BME280;50750;51.636;4.948;2023-02-21T05:11:14;102158.02;;;12.47;66.21
59873;BME280;50750;51.636;4.948;2023-02-21T05:13:41;102155.73;;;12.47;66.04
59873;BME280;50750;51.636;4.948;2023-02-21T05:16:08;102156.26;;;12.47;66.17
59873;BME280;50750;51.636;4.948;2023-02-21T05:18:34;102156.23;;;12.48;66.02
59873;BME280;50750;51.636;4.948;2023-02-21T05:21:05;102152.91;;;12.48;66.10
59873;BME280;50750;51.636;4.948;2023-02-21T05:23:32;102156.41;;;12.48;66.01
59873;BME280;50750;51.636;4.948;2023-02-21T05:26:05;102157.99;;;12.48;66.16
59873;BME280;50750;51.636;4.948;2023-02-21T05:28:32;102160.64;;;12.48;66.16
59873;BME280;50750;51.636;4.948;2023-02-21T05:30:59;102163.10;;;12.47;66.21
59873;BME280;50750;51.636;4.948;2023-02-21T05:33:26;102155.02;;;12.47;66.10
59873;BME280;50750;51.636;4.948;2023-02-21T05:35:53;102158.37;;;12.47;66.26
59873;BME280;50750;51.636;4.948;2023-02-21T05:38:22;102154.86;;;12.47;66.15
59873;BME280;50750;51.636;4.948;2023-02-21T05:40:49;102156.44;;;12.47;66.15
59873;BME280;50750;51.636;4.948;2023-02-21T05:43:15;102154.86;;;12.46;66.28
59873;BME280;50750;51.636;4.948;2023-02-21T05:45:42;102149.94;;;12.47;66.22
59873;BME280;50750;51.636;4.948;2023-02-21T05:48:08;102150.45;;;12.47;66.20
59873;BME280;50750;51.636;4.948;2023-02-21T05:50:35;102147.82;;;12.47;66.11
59873;BME280;50750;51.636;4.948;2023-02-21T05:53:01;102149.40;;;12.47;66.12
59873;BME280;50750;51.636;4.948;2023-02-21T05:55:28;102154.66;;;12.48;66.12
59873;BME280;50750;51.636;4.948;2023-02-21T05:57:55;102157.30;;;12.47;66.19
59873;BME280;50750;51.636;4.948;2023-02-21T06:00:25;102159.25;;;12.47;66.04
59873;BME280;50750;51.636;4.948;2023-02-21T06:02:54;102160.65;;;12.47;66.22
59873;BME280;50750;51.636;4.948;2023-02-21T06:05:21;102161.35;;;12.46;66.27
59873;BME280;50750;51.636;4.948;2023-02-21T06:07:48;102156.97;;;12.46;66.13
59873;BME280;50750;51.636;4.948;2023-02-21T06:10:16;102156.61;;;12.46;66.15
59873;BME280;50750;51.636;4.948;2023-02-21T06:12:42;102152.75;;;12.47;66.17
59873;BME280;50750;51.636;4.948;2023-02-21T06:15:09;102153.80;;;12.47;66.21
59873;BME280;50750;51.636;4.948;2023-02-21T06:17:39;102155.89;;;12.48;66.17
59873;BME280;50750;51.636;4.948;2023-02-21T06:20:07;102158.00;;;12.47;66.15
59873;BME280;50750;51.636;4.948;2023-02-21T06:22:35;102158.70;;;12.48;66.15
59873;BME280;50750;51.636;4.948;2023-02-21T06:25:02;102154.82;;;12.48;66.12
59873;BME280;50750;51.636;4.948;2023-02-21T06:27:29;102153.95;;;12.48;66.14
59873;BME280;50750;51.636;4.948;2023-02-21T06:29:55;102155.36;;;12.48;66.13
59873;BME280;50750;51.636;4.948;2023-02-21T06:32:22;102155.20;;;12.48;66.24
59873;BME280;50750;51.636;4.948;2023-02-21T06:34:48;102156.09;;;12.47;66.14
59873;BME280;50750;51.636;4.948;2023-02-21T06:37:17;102151.70;;;12.47;66.14
59873;BME280;50750;51.636;4.948;2023-02-21T06:39:44;102152.75;;;12.46;66.19
59873;BME280;50750;51.636;4.948;2023-02-21T06:42:15;102155.73;;;12.46;66.17
59873;BME280;50750;51.636;4.948;2023-02-21T06:44:45;102158.71;;;12.47;66.16
59873;BME280;50750;51.636;4.948;2023-02-21T06:47:13;102158.89;;;12.48;66.26
59873;BME280;50750;51.636;4.948;2023-02-21T06:49:40;102156.08;;;12.48;66.15
59873;BME280;50750;51.636;4.948;2023-02-21T06:52:08;102157.83;;;12.48;66.18
59873;BME280;50750;51.636;4.948;2023-02-21T06:54:35;102159.05;;;12.48;66.16
59873;BME280;50750;51.636;4.948;2023-02-21T06:57:02;102160.28;;;12.48;66.08
59873;BME280;50750;51.636;4.948;2023-02-21T06:59:28;102161.88;;;12.47;66.16
59873;BME280;50750;51.636;4.948;2023-02-21T07:01:55;102162.76;;;12.47;66.14
59873;BME280;50750;51.636;4.948;2023-02-21T07:04:23;102164.52;;;12.47;66.01
59873;BME280;50750;51.636;4.948;2023-02-21T07:06:50;102173.66;;;12.47;66.19
59873;BME280;50750;51.636;4.948;2023-02-21T07:09:17;102174.36;;;12.46;66.13
59873;BME280;50750;51.636;4.948;2023-02-21T07:11:43;102169.61;;;12.46;66.09
59873;BME280;50750;51.636;4.948;2023-02-21T07:14:13;102170.48;;;12.46;66.02
59873;BME280;50750;51.636;4.948;2023-02-21T07:16:39;102173.65;;;12.47;66.26
59873;BME280;50750;51.636;4.948;2023-02-21T07:19:06;102181.38;;;12.47;66.17
59873;BME280;50750;51.636;4.948;2023-02-21T07:21:32;102181.38;;;12.47;66.23
59873;BME280;50750;51.636;4.948;2023-02-21T07:23:59;102181.02;;;12.48;66.23
59873;BME280;50750;51.636;4.948;2023-02-21T07:26:26;102176.10;;;12.48;66.19
59873;BME280;50750;51.636;4.948;2023-02-21T07:28:52;102177.50;;;12.47;66.22
59873;BME280;50750;51.636;4.948;2023-02-21T07:31:18;102179.63;;;12.47;66.00
59873;BME280;50750;51.636;4.948;2023-02-21T07:33:45;102176.12;;;12.46;66.14
59873;BME280;50750;51.636;4.948;2023-02-21T07:36:12;102172.25;;;12.46;66.08
59873;BME280;50750;51.636;4.948;2023-02-21T07:38:38;102169.62;;;12.46;66.14
59873;BME280;50750;51.636;4.948;2023-02-21T07:41:05;102175.59;;;12.47;66.19
59873;BME280;50750;51.636;4.948;2023-02-21T07:43:31;102189.10;;;12.47;66.14
59873;BME280;50750;51.636;4.948;2023-02-21T07:45:58;102190.69;;;12.48;66.09
59873;BME280;50750;51.636;4.948;2023-02-21T07:48:25;102182.77;;;12.48;66.16
59873;BME280;50750;51.636;4.948;2023-02-21T07:50:52;102177.33;;;12.48;66.13
59873;BME280;50750;51.636;4.948;2023-02-21T07:53:18;102172.58;;;12.48;66.05
59873;BME280;50750;51.636;4.948;2023-02-21T07:55:45;102176.79;;;12.48;66.12
59873;BME280;50750;51.636;4.948;2023-02-21T07:58:12;102178.55;;;12.48;66.11
59873;BME280;50750;51.636;4.948;2023-02-21T08:00:39;102175.95;;;12.47;66.16
59873;BME280;50750;51.636;4.948;2023-02-21T08:03:05;102175.76;;;12.46;66.17
59873;BME280;50750;51.636;4.948;2023-02-21T08:05:32;102173.84;;;12.46;66.20
59873;BME280;50750;51.636;4.948;2023-02-21T08:07:58;102173.83;;;12.46;66.16
59873;BME280;50750;51.636;4.948;2023-02-21T08:10:26;102163.45;;;12.47;66.20
59873;BME280;50750;51.636;4.948;2023-02-21T08:12:53;102160.13;;;12.47;66.16
59873;BME280;50750;51.636;4.948;2023-02-21T08:15:20;102169.77;;;12.48;66.18
59873;BME280;50750;51.636;4.948;2023-02-21T08:17:48;102171.86;;;12.48;66.20
59873;BME280;50750;51.636;4.948;2023-02-21T08:20:16;102174.33;;;12.48;66.14
59873;BME280;50750;51.636;4.948;2023-02-21T08:22:43;102175.21;;;12.48;66.21
59873;BME280;50750;51.636;4.948;2023-02-21T08:25:14;102176.28;;;12.47;66.10
59873;BME280;50750;51.636;4.948;2023-02-21T08:27:41;102175.40;;;12.48;66.19
59873;BME280;50750;51.636;4.948;2023-02-21T08:30:11;102175.75;;;12.47;66.26
59873;BME280;50750;51.636;4.948;2023-02-21T08:32:39;102173.30;;;12.47;66.13
59873;BME280;50750;51.636;4.948;2023-02-21T08:35:06;102168.91;;;12.46;66.17
59873;BME280;50750;51.636;4.948;2023-02-21T08:37:33;102166.10;;;12.46;66.13
59873;BME280;50750;51.636;4.948;2023-02-21T08:40:03;102168.91;;;12.47;66.11
59873;BME280;50750;51.636;4.948;2023-02-21T08:42:30;102172.42;;;12.47;66.18
59873;BME280;50750;51.636;4.948;2023-02-21T08:44:57;102170.83;;;12.48;65.99
59873;BME280;50750;51.636;4.948;2023-02-21T08:47:23;102169.58;;;12.48;66.14
59873;BME280;50750;51.636;4.948;2023-02-21T08:49:50;102163.44;;;12.48;66.17
59873;BME280;50750;51.636;4.948;2023-02-21T08:52:17;102159.58;;;12.48;66.15
59873;BME280;50750;51.636;4.948;2023-02-21T08:54:44;102157.46;;;12.48;66.16
59873;BME280;50750;51.636;4.948;2023-02-21T08:57:11;102154.31;;;12.47;66.24
59873;BME280;50750;51.636;4.948;2023-02-21T08:59:42;102155.38;;;12.47;66.18
59873;BME280;50750;51.636;4.948;2023-02-21T09:02:23;102156.44;;;12.47;66.25
59873;BME280;50750;51.636;4.948;2023-02-21T09:04:52;102153.45;;;12.47;66.24
59873;BME280;50750;51.636;4.948;2023-02-21T09:07:21;102156.61;;;12.47;66.14
59873;BME280;50750;51.636;4.948;2023-02-21T09:09:48;102153.08;;;12.48;66.15
59873;BME280;50750;51.636;4.948;2023-02-21T09:12:15;102150.09;;;12.47;66.22
59873;BME280;50750;51.636;4.948;2023-02-21T09:14:42;102151.84;;;12.48;66.18
59873;BME280;50750;51.636;4.948;2023-02-21T09:17:12;102153.41;;;12.48;66.21
59873;BME280;50750;51.636;4.948;2023-02-21T09:19:39;102149.55;;;12.49;66.20
59873;BME280;50750;51.636;4.948;2023-02-21T09:22:09;102149.90;;;12.49;66.19
59873;BME280;50750;51.636;4.948;2023-02-21T09:24:36;102152.53;;;12.49;66.17
59873;BME280;50750;51.636;4.948;2023-02-21T09:27:04;102152.02;;;12.49;66.17
59873;BME280;50750;51.636;4.948;2023-02-21T09:29:32;102149.02;;;12.48;66.21
59873;BME280;50750;51.636;4.948;2023-02-21T09:32:01;102141.31;;;12.48;66.26
59873;BME280;50750;51.636;4.948;2023-02-21T09:34:28;102140.26;;;12.48;66.16
59873;BME280;50750;51.636;4.948;2023-02-21T09:36:55;102141.31;;;12.48;66.17
59873;BME280;50750;51.636;4.948;2023-02-21T09:39:23;102142.53;;;12.48;66.08
59873;BME280;50750;51.636;4.948;2023-02-21T09:41:50;102139.89;;;12.48;66.18
59873;BME280;50750;51.636;4.948;2023-02-21T09:44:23;102136.55;;;12.49;66.23
59873;BME280;50750;51.636;4.948;2023-02-21T09:46:59;102137.08;;;12.49;66.13
59873;BME280;50750;51.636;4.948;2023-02-21T09:49:31;102133.03;;;12.49;66.19
59873;BME280;50750;51.636;4.948;2023-02-21T09:52:00;102134.08;;;12.49;66.14
59873;BME280;50750;51.636;4.948;2023-02-21T09:54:31;102137.07;;;12.50;66.14
59873;BME280;50750;51.636;4.948;2023-02-21T09:57:03;102141.11;;;12.49;66.22
59873;BME280;50750;51.636;4.948;2023-02-21T09:59:31;102141.63;;;12.49;66.13
59873;BME280;50750;51.636;4.948;2023-02-21T10:07:20;102143.77;;;12.48;66.26
59873;BME280;50750;51.636;4.948;2023-02-21T10:09:59;102138.65;;;12.49;66.26
59873;BME280;50750;51.636;4.948;2023-02-21T10:12:37;102138.13;;;12.49;66.21
59873;BME280;50750;51.636;4.948;2023-02-21T10:18:15;102147.95;;;12.50;66.16
59873;BME280;50750;51.636;4.948;2023-02-21T10:20:58;102143.04;;;12.50;66.28
59873;BME280;50750;51.636;4.948;2023-02-21T10:23:37;102133.90;;;12.50;66.12
59873;BME280;50750;51.636;4.948;2023-02-21T10:26:08;102134.95;;;12.50;66.13
59873;BME280;50750;51.636;4.948;2023-02-21T10:28:36;102140.05;;;12.49;66.14
59873;BME280;50750;51.636;4.948;2023-02-21T10:31:23;102142.70;;;12.48;66.16
59873;BME280;50750;51.636;4.948;2023-02-21T10:33:55;102142.52;;;12.49;66.20
59873;BME280;50750;51.636;4.948;2023-02-21T10:36:22;102138.14;;;12.49;66.18
59873;BME280;50750;51.636;4.948;2023-02-21T10:38:57;102136.72;;;12.49;66.22
59873;BME280;50750;51.636;4.948;2023-02-21T10:41:28;102141.48;;;12.49;66.17
59873;BME280;50750;51.636;4.948;2023-02-21T10:44:04;102140.23;;;12.50;66.21
59873;BME280;50750;51.636;4.948;2023-02-21T10:46:39;102143.55;;;12.50;66.27
59873;BME280;50750;51.636;4.948;2023-02-21T10:49:22;102139.16;;;12.50;66.19
59873;BME280;50750;51.636;4.948;2023-02-21T10:52:22;102139.16;;;12.50;66.13
59873;BME280;50750;51.636;4.948;2023-02-21T10:55:27;102141.98;;;12.50;66.16
59873;BME280;50750;51.636;4.948;2023-02-21T10:57:58;102138.65;;;12.49;66.26
59873;BME280;50750;51.636;4.948;2023-02-21T11:00:34;102135.14;;;12.49;66.35
59873;BME280;50750;51.636;4.948;2023-02-21T11:03:25;102130.05;;;12.48;66.17
59873;BME280;50750;51.636;4.948;2023-02-21T11:05:54;102126.36;;;12.48;66.35
59873;BME280;50750;51.636;4.948;2023-02-21T11:08:42;102127.05;;;12.49;66.21
59873;BME280;50750;51.636;4.948;2023-02-21T11:11:09;102125.81;;;12.50;66.30
59873;BME280;50750;51.636;4.948;2023-02-21T11:13:36;102127.21;;;12.50;66.30
59873;BME280;50750;51.636;4.948;2023-02-21T11:16:17;102124.20;;;12.51;66.26
59873;BME280;50750;51.636;4.948;2023-02-21T11:18:44;102116.83;;;12.51;66.10
59873;BME280;50750;51.636;4.948;2023-02-21T11:21:17;102121.39;;;12.51;66.21
59873;BME280;50750;51.636;4.948;2023-02-21T11:23:53;102120.17;;;12.51;66.20
59873;BME280;50750;51.636;4.948;2023-02-21T11:26:24;102118.79;;;12.50;66.22
59873;BME280;50750;51.636;4.948;2023-02-21T11:28:51;102115.28;;;12.49;66.16
59873;BME280;50750;51.636;4.948;2023-02-21T11:31:29;102110.90;;;12.49;66.19
59873;BME280;50750;51.636;4.948;2023-02-21T11:34:00;102107.91;;;12.49;66.24
59873;BME280;50750;51.636;4.948;2023-02-21T11:36:33;102105.10;;;12.49;66.20
59873;BME280;50750;51.636;4.948;2023-02-21T11:41:47;102101.76;;;12.49;66.25
59873;BME280;50750;51.636;4.948;2023-02-21T11:44:31;102097.53;;;12.50;66.19
59873;BME280;50750;51.636;4.948;2023-02-21T11:47:12;102095.07;;;12.50;66.29
59873;BME280;50750;51.636;4.948;2023-02-21T11:52:47;102091.88;;;12.51;66.22
59873;BME280;50750;51.636;4.948;2023-02-21T11:55:17;102086.98;;;12.50;66.26
59873;BME280;50750;51.636;4.948;2023-02-21T12:00:50;102077.33;;;12.50;66.32
59873;BME280;50750;51.636;4.948;2023-02-21T12:03:35;102076.81;;;12.49;66.31
59873;BME280;50750;51.636;4.948;2023-02-21T12:06:20;102077.88;;;12.48;66.33
59873;BME280;50750;51.636;4.948;2023-02-21T12:11:26;102075.77;;;12.48;66.29
59873;BME280;50750;51.636;4.948;2023-02-21T12:16:40;102067.50;;;12.48;66.33
59873;BME280;50750;51.636;4.948;2023-02-21T12:19:42;102069.27;;;12.49;66.35
59873;BME280;50750;51.636;4.948;2023-02-21T12:22:33;102064.34;;;12.49;66.27
59873;BME280;50750;51.636;4.948;2023-02-21T12:25:27;102063.63;;;12.49;66.23
59873;BME280;50750;51.636;4.948;2023-02-21T12:42:50;102053.97;;;12.49;66.32
59873;BME280;50750;51.636;4.948;2023-02-21T12:51:05;102052.21;;;12.49;66.33
59873;BME280;50750;51.636;4.948;2023-02-21T12:53:53;102053.95;;;12.50;66.30
59873;BME280;50750;51.636;4.948;2023-02-21T12:56:36;102050.94;;;12.51;66.38
59873;BME280;50750;51.636;4.948;2023-02-21T12:59:23;102047.95;;;12.51;66.19
59873;BME280;50750;51.636;4.948;2023-02-21T13:01:58;102040.57;;;12.51;66.34
59873;BME280;50750;51.636;4.948;2023-02-21T13:04:37;102043.02;;;12.52;66.28
59873;BME280;50750;51.636;4.948;2023-02-21T13:10:43;102040.92;;;12.51;66.34
59873;BME280;50750;51.636;4.948;2023-02-21T13:13:11;102035.33;;;12.50;66.27
59873;BME280;50750;51.636;4.948;2023-02-21T13:15:41;102034.66;;;12.49;66.38
59873;BME280;50750;51.636;4.948;2023-02-21T13:18:19;102033.24;;;12.49;66.32
59873;BME280;50750;51.636;4.948;2023-02-21T13:21:00;102030.80;;;12.49;66.33
59873;BME280;50750;51.636;4.948;2023-02-21T13:23:29;102027.96;;;12.48;66.35
59873;BME280;50750;51.636;4.948;2023-02-21T13:28:30;102024.80;;;12.49;66.40
59873;BME280;50750;51.636;4.948;2023-02-21T13:31:04;102025.68;;;12.49;66.46
59873;BME280;50750;51.636;4.948;2023-02-21T13:33:40;102024.28;;;12.50;66.23
59873;BME280;50750;51.636;4.948;2023-02-21T13:36:22;102024.27;;;12.50;66.29
59873;BME280;50750;51.636;4.948;2023-02-21T13:39:18;102022.52;;;12.49;66.29
59873;BME280;50750;51.636;4.948;2023-02-21T13:41:49;102024.45;;;12.50;66.40
59873;BME280;50750;51.636;4.948;2023-02-21T13:44:23;102020.95;;;12.49;66.36
59873;BME280;50750;51.636;4.948;2023-02-21T13:57:44;102007.38;;;12.51;66.25
59873;BME280;50750;51.636;4.948;2023-02-21T14:13:34;101996.50;;;12.50;66.36
59873;BME280;50750;51.636;4.948;2023-02-21T14:16:15;101995.45;;;12.50;66.31
59873;BME280;50750;51.636;4.948;2023-02-21T14:23:49;101992.10;;;12.50;66.32
59873;BME280;50750;51.636;4.948;2023-02-21T14:31:46;101985.76;;;12.51;66.29
59873;BME280;50750;51.636;4.948;2023-02-21T14:34:26;101982.23;;;12.52;66.11
59873;BME280;50750;51.636;4.948;2023-02-21T14:36:59;101982.05;;;12.52;66.33
59873;BME280;50750;51.636;4.948;2023-02-21T14:39:34;101980.66;;;12.51;66.19
59873;BME280;50750;51.636;4.948;2023-02-21T15:01:46;101959.21;;;12.52;66.07
59873;BME280;50750;51.636;4.948;2023-02-21T15:04:17;101957.45;;;12.52;66.16
59873;BME280;50750;51.636;4.948;2023-02-21T15:06:58;101956.23;;;12.51;66.13
59873;BME280;50750;51.636;4.948;2023-02-21T15:09:26;101956.41;;;12.51;66.17
59873;BME280;50750;51.636;4.948;2023-02-21T15:11:53;101954.33;;;12.51;66.18
59873;BME280;50750;51.636;4.948;2023-02-21T15:14:26;101951.67;;;12.51;66.14
59873;BME280;50750;51.636;4.948;2023-02-21T15:16:57;101952.21;;;12.51;66.13
59873;BME280;50750;51.636;4.948;2023-02-21T15:19:29;101955.73;;;12.51;66.13
59873;BME280;50750;51.636;4.948;2023-02-21T15:24:56;101958.52;;;12.52;66.06
59873;BME280;50750;51.636;4.948;2023-02-21T15:27:22;101959.21;;;12.51;66.06
59873;BME280;50750;51.636;4.948;2023-02-21T15:32:30;101959.56;;;12.52;66.18
59873;BME280;50750;51.636;4.948;2023-02-21T15:34:56;101957.98;;;12.52;66.13
59873;BME280;50750;51.636;4.948;2023-02-21T15:37:26;101955.52;;;12.52;66.15